Coulter Field


Codes: KCFD/CFD
Name: Coulter Field
City: Bryan
Country: United States
Elevation: 367 ft.
Website:
Wikipedia:

Photos at Coulter Field


   Photos courtesy of SpottingLog. You can add your own sightings and photos by signing up for a free trial today.



No photos found.

Weather at Coulter Field


Time (UTC)DescriptionTempratureWindCloud coverageVisibilityPressureHumidity
16-Jun-2024 00:00Clear Sky34°C4 mph, E0%10000m1011hPa50%
16-Jun-2024 03:00Scattered Clouds32°C11 mph, S29%10000m1011hPa51%
16-Jun-2024 06:00Scattered Clouds27°C7 mph, S31%10000m1012hPa70%
16-Jun-2024 09:00Clear Sky22°C7 mph, S3%10000m1011hPa93%
16-Jun-2024 12:00Clear Sky22°C7 mph, SE2%10000m1012hPa95%
16-Jun-2024 15:00Clear Sky28°C9 mph, SE0%10000m1012hPa74%
16-Jun-2024 18:00Clear Sky32°C7 mph, SE4%10000m1012hPa50%
16-Jun-2024 21:00Clear Sky34°C7 mph, S1%10000m1010hPa40%
17-Jun-2024 00:00Scattered Clouds30°C4 mph, NE26%10000m1008hPa63%
17-Jun-2024 03:00Scattered Clouds27°C11 mph, SE29%10000m1009hPa66%
17-Jun-2024 06:00Few Clouds24°C7 mph, S14%10000m1011hPa85%
17-Jun-2024 09:00Clear Sky23°C7 mph, SE0%10000m1010hPa95%
17-Jun-2024 12:00Light Rain23°C7 mph, SE0%10000m1010hPa96%
17-Jun-2024 15:00Clear Sky29°C11 mph, SE2%10000m1011hPa71%
17-Jun-2024 18:00Light Rain31°C11 mph, SE25%10000m1009hPa59%
17-Jun-2024 21:00Light Rain30°C7 mph, E100%10000m1008hPa69%
18-Jun-2024 00:00Light Rain28°C11 mph, SE84%10000m1008hPa74%
18-Jun-2024 03:00Light Rain24°C13 mph, SE0%10000m1009hPa93%
18-Jun-2024 06:00Few Clouds24°C11 mph, SE19%10000m1010hPa93%
18-Jun-2024 09:00Overcast Clouds24°C9 mph, E93%10000m1008hPa94%
18-Jun-2024 12:00Light Rain24°C11 mph, E93%10000m1009hPa94%
18-Jun-2024 15:00Broken Clouds27°C18 mph, SE83%10000m1010hPa79%
18-Jun-2024 18:00Light Rain26°C18 mph, SE85%10000m1011hPa80%
18-Jun-2024 21:00Light Rain28°C18 mph, E84%10000m1009hPa72%
19-Jun-2024 00:00Overcast Clouds24°C16 mph, E92%10000m1009hPa83%
19-Jun-2024 03:00Overcast Clouds23°C16 mph, E100%10000m1010hPa86%
19-Jun-2024 06:00Light Rain22°C20 mph, E100%6328m1009hPa95%
19-Jun-2024 09:00Heavy Intensity Rain22°C20 mph, E100%2305m1008hPa97%
19-Jun-2024 12:00Heavy Intensity Rain22°C25 mph, E100%2745m1008hPa97%
19-Jun-2024 15:00Heavy Intensity Rain22°C27 mph, E100%3902m1010hPa95%
19-Jun-2024 18:00Heavy Intensity Rain22°C20 mph, E100%3454m1011hPa97%
19-Jun-2024 21:00Moderate Rain23°C22 mph, E100%9338m1011hPa96%
20-Jun-2024 00:00Moderate Rain23°C20 mph, E100%5428m1012hPa97%
20-Jun-2024 03:00Heavy Intensity Rain22°C16 mph, NE100%5700m1015hPa97%
20-Jun-2024 06:00Moderate Rain22°C16 mph, NE100%10000m1015hPa97%
20-Jun-2024 09:00Light Rain22°C16 mph, NE100%10000m1014hPa96%
20-Jun-2024 12:00Overcast Clouds22°C13 mph, NE100%10000m1016hPa94%
20-Jun-2024 15:00Overcast Clouds24°C13 mph, NE100%10000m1017hPa89%
20-Jun-2024 18:00Overcast Clouds28°C13 mph, E100%10000m1017hPa76%
20-Jun-2024 21:00Overcast Clouds29°C9 mph, E100%10000m1016hPa72%